sensor_id;sensor_type;location;lat;lon;timestamp;P1;durP1;ratioP1;P2;durP2;ratioP2
56073;SDS011;41950;55.840;37.442;2023-01-16T00:01:14;13.93;;;8.85;;
56073;SDS011;41950;55.840;37.442;2023-01-16T00:03:40;14.82;;;8.23;;
56073;SDS011;41950;55.840;37.442;2023-01-16T00:06:06;14.88;;;9.02;;
56073;SDS011;41950;55.840;37.442;2023-01-16T00:08:32;16.90;;;8.60;;
56073;SDS011;41950;55.840;37.442;2023-01-16T00:10:57;15.82;;;8.85;;
56073;SDS011;41950;55.840;37.442;2023-01-16T00:13:23;14.57;;;9.25;;
56073;SDS011;41950;55.840;37.442;2023-01-16T00:15:49;14.77;;;7.55;;
56073;SDS011;41950;55.840;37.442;2023-01-16T00:18:17;15.68;;;8.45;;
56073;SDS011;41950;55.840;37.442;2023-01-16T00:20:43;13.93;;;8.48;;
56073;SDS011;41950;55.840;37.442;2023-01-16T00:23:11;14.68;;;8.63;;
56073;SDS011;41950;55.840;37.442;2023-01-16T00:25:43;16.42;;;10.00;;
56073;SDS011;41950;55.840;37.442;2023-01-16T00:28:09;14.32;;;7.53;;
56073;SDS011;41950;55.840;37.442;2023-01-16T00:30:37;15.75;;;7.88;;
56073;SDS011;41950;55.840;37.442;2023-01-16T00:33:03;13.18;;;8.20;;
56073;SDS011;41950;55.840;37.442;2023-01-16T00:35:29;16.27;;;8.32;;
56073;SDS011;41950;55.840;37.442;2023-01-16T00:37:56;14.45;;;8.55;;
56073;SDS011;41950;55.840;37.442;2023-01-16T00:40:22;13.50;;;7.95;;
56073;SDS011;41950;55.840;37.442;2023-01-16T00:42:48;15.52;;;8.32;;
56073;SDS011;41950;55.840;37.442;2023-01-16T00:45:14;16.67;;;8.88;;
56073;SDS011;41950;55.840;37.442;2023-01-16T00:47:41;16.10;;;8.32;;
56073;SDS011;41950;55.840;37.442;2023-01-16T00:50:09;14.30;;;9.50;;
56073;SDS011;41950;55.840;37.442;2023-01-16T00:52:35;12.27;;;7.88;;
56073;SDS011;41950;55.840;37.442;2023-01-16T00:55:01;20.88;;;8.95;;
56073;SDS011;41950;55.840;37.442;2023-01-16T00:57:28;13.65;;;8.93;;
56073;SDS011;41950;55.840;37.442;2023-01-16T00:59:54;15.88;;;9.20;;
56073;SDS011;41950;55.840;37.442;2023-01-16T01:02:20;16.63;;;8.70;;
56073;SDS011;41950;55.840;37.442;2023-01-16T01:04:47;15.20;;;8.27;;
56073;SDS011;41950;55.840;37.442;2023-01-16T01:07:12;14.48;;;8.63;;
56073;SDS011;41950;55.840;37.442;2023-01-16T01:09:38;15.95;;;7.38;;
56073;SDS011;41950;55.840;37.442;2023-01-16T01:12:04;15.82;;;8.95;;
56073;SDS011;41950;55.840;37.442;2023-01-16T01:14:30;15.70;;;8.98;;
56073;SDS011;41950;55.840;37.442;2023-01-16T01:16:56;21.55;;;9.95;;
56073;SDS011;41950;55.840;37.442;2023-01-16T01:19:22;16.80;;;9.10;;
56073;SDS011;41950;55.840;37.442;2023-01-16T01:21:49;12.30;;;6.90;;
56073;SDS011;41950;55.840;37.442;2023-01-16T01:24:14;14.35;;;7.55;;
56073;SDS011;41950;55.840;37.442;2023-01-16T01:26:40;16.90;;;10.02;;
56073;SDS011;41950;55.840;37.442;2023-01-16T01:29:07;15.40;;;9.02;;
56073;SDS011;41950;55.840;37.442;2023-01-16T01:31:33;14.40;;;8.95;;
56073;SDS011;41950;55.840;37.442;2023-01-16T01:33:58;15.85;;;9.75;;
56073;SDS011;41950;55.840;37.442;2023-01-16T01:36:24;12.95;;;7.70;;
56073;SDS011;41950;55.840;37.442;2023-01-16T01:38:51;14.90;;;9.25;;
56073;SDS011;41950;55.840;37.442;2023-01-16T01:41:18;16.88;;;8.48;;
56073;SDS011;41950;55.840;37.442;2023-01-16T01:43:52;17.17;;;9.15;;
56073;SDS011;41950;55.840;37.442;2023-01-16T01:48:51;13.60;;;8.63;;
56073;SDS011;41950;55.840;37.442;2023-01-16T01:51:25;14.50;;;7.15;;
56073;SDS011;41950;55.840;37.442;2023-01-16T01:54:02;18.38;;;10.23;;
56073;SDS011;41950;55.840;37.442;2023-01-16T01:56:34;13.30;;;8.13;;
56073;SDS011;41950;55.840;37.442;2023-01-16T01:59:11;15.85;;;8.73;;
56073;SDS011;41950;55.840;37.442;2023-01-16T02:01:41;14.80;;;8.25;;
56073;SDS011;41950;55.840;37.442;2023-01-16T02:04:15;18.60;;;8.82;;
56073;SDS011;41950;55.840;37.442;2023-01-16T02:06:45;18.00;;;8.45;;
56073;SDS011;41950;55.840;37.442;2023-01-16T02:09:16;14.25;;;9.15;;
56073;SDS011;41950;55.840;37.442;2023-01-16T02:11:51;13.75;;;8.07;;
56073;SDS011;41950;55.840;37.442;2023-01-16T02:14:21;14.15;;;7.80;;
56073;SDS011;41950;55.840;37.442;2023-01-16T02:16:50;13.38;;;8.18;;
56073;SDS011;41950;55.840;37.442;2023-01-16T02:19:50;17.17;;;7.60;;
56073;SDS011;41950;55.840;37.442;2023-01-16T02:22:38;13.05;;;8.43;;
56073;SDS011;41950;55.840;37.442;2023-01-16T02:28:08;16.77;;;8.25;;
56073;SDS011;41950;55.840;37.442;2023-01-16T02:31:06;15.45;;;8.57;;
56073;SDS011;41950;55.840;37.442;2023-01-16T02:47:45;16.88;;;8.48;;
56073;SDS011;41950;55.840;37.442;2023-01-16T02:50:38;12.45;;;7.88;;
56073;SDS011;41950;55.840;37.442;2023-01-16T02:53:29;16.20;;;9.40;;
56073;SDS011;41950;55.840;37.442;2023-01-16T02:56:06;25.48;;;8.90;;
56073;SDS011;41950;55.840;37.442;2023-01-16T02:58:36;16.20;;;8.25;;
56073;SDS011;41950;55.840;37.442;2023-01-16T03:01:06;17.42;;;8.68;;
56073;SDS011;41950;55.840;37.442;2023-01-16T03:06:45;18.70;;;8.00;;
56073;SDS011;41950;55.840;37.442;2023-01-16T03:12:21;17.38;;;9.30;;
56073;SDS011;41950;55.840;37.442;2023-01-16T03:34:33;17.75;;;9.10;;
56073;SDS011;41950;55.840;37.442;2023-01-16T03:37:10;17.42;;;8.20;;
56073;SDS011;41950;55.840;37.442;2023-01-16T03:39:46;14.25;;;6.15;;
56073;SDS011;41950;55.840;37.442;2023-01-16T03:42:20;15.20;;;7.50;;
56073;SDS011;41950;55.840;37.442;2023-01-16T03:44:52;21.60;;;8.35;;
56073;SDS011;41950;55.840;37.442;2023-01-16T03:47:23;14.43;;;8.07;;
56073;SDS011;41950;55.840;37.442;2023-01-16T03:49:58;15.07;;;8.57;;
56073;SDS011;41950;55.840;37.442;2023-01-16T03:52:34;18.85;;;8.20;;
56073;SDS011;41950;55.840;37.442;2023-01-16T03:58:08;17.45;;;7.97;;
56073;SDS011;41950;55.840;37.442;2023-01-16T04:03:16;15.90;;;6.75;;
56073;SDS011;41950;55.840;37.442;2023-01-16T04:06:03;18.13;;;7.85;;
56073;SDS011;41950;55.840;37.442;2023-01-16T04:08:36;13.40;;;6.47;;
56073;SDS011;41950;55.840;37.442;2023-01-16T04:11:05;13.85;;;5.93;;
56073;SDS011;41950;55.840;37.442;2023-01-16T04:13:33;15.10;;;7.45;;
56073;SDS011;41950;55.840;37.442;2023-01-16T04:16:03;14.82;;;7.80;;
56073;SDS011;41950;55.840;37.442;2023-01-16T04:18:33;13.70;;;5.55;;
56073;SDS011;41950;55.840;37.442;2023-01-16T04:21:05;14.45;;;6.35;;
56073;SDS011;41950;55.840;37.442;2023-01-16T04:23:33;17.52;;;7.45;;
56073;SDS011;41950;55.840;37.442;2023-01-16T04:26:00;16.83;;;7.72;;
56073;SDS011;41950;55.840;37.442;2023-01-16T04:28:25;10.45;;;5.13;;
56073;SDS011;41950;55.840;37.442;2023-01-16T04:30:52;15.48;;;5.93;;
56073;SDS011;41950;55.840;37.442;2023-01-16T04:33:18;17.70;;;7.68;;
56073;SDS011;41950;55.840;37.442;2023-01-16T04:35:43;16.60;;;8.07;;
56073;SDS011;41950;55.840;37.442;2023-01-16T04:38:10;14.43;;;8.52;;
56073;SDS011;41950;55.840;37.442;2023-01-16T04:40:37;20.17;;;8.60;;
56073;SDS011;41950;55.840;37.442;2023-01-16T04:43:03;16.88;;;8.05;;
56073;SDS011;41950;55.840;37.442;2023-01-16T04:45:29;14.85;;;7.35;;
56073;SDS011;41950;55.840;37.442;2023-01-16T04:47:55;16.13;;;9.02;;
56073;SDS011;41950;55.840;37.442;2023-01-16T04:50:22;8.15;;;4.00;;
56073;SDS011;41950;55.840;37.442;2023-01-16T04:52:48;19.08;;;8.43;;
56073;SDS011;41950;55.840;37.442;2023-01-16T04:55:15;15.70;;;8.32;;
56073;SDS011;41950;55.840;37.442;2023-01-16T04:57:41;15.52;;;7.32;;
56073;SDS011;41950;55.840;37.442;2023-01-16T05:00:08;12.52;;;6.72;;
56073;SDS011;41950;55.840;37.442;2023-01-16T05:02:35;12.40;;;7.20;;
56073;SDS011;41950;55.840;37.442;2023-01-16T05:05:01;14.07;;;7.82;;
56073;SDS011;41950;55.840;37.442;2023-01-16T05:07:28;15.55;;;6.72;;
56073;SDS011;41950;55.840;37.442;2023-01-16T05:09:54;9.75;;;5.05;;
56073;SDS011;41950;55.840;37.442;2023-01-16T05:12:20;16.48;;;7.80;;
56073;SDS011;41950;55.840;37.442;2023-01-16T05:14:46;12.95;;;5.80;;
56073;SDS011;41950;55.840;37.442;2023-01-16T05:17:11;13.60;;;7.45;;
56073;SDS011;41950;55.840;37.442;2023-01-16T05:19:38;10.85;;;5.95;;
56073;SDS011;41950;55.840;37.442;2023-01-16T05:22:03;16.05;;;7.93;;
56073;SDS011;41950;55.840;37.442;2023-01-16T05:24:29;17.40;;;8.15;;
56073;SDS011;41950;55.840;37.442;2023-01-16T05:26:57;15.23;;;7.10;;
56073;SDS011;41950;55.840;37.442;2023-01-16T05:29:23;14.05;;;6.25;;
56073;SDS011;41950;55.840;37.442;2023-01-16T05:31:50;14.38;;;7.70;;
56073;SDS011;41950;55.840;37.442;2023-01-16T05:34:16;19.63;;;8.32;;
56073;SDS011;41950;55.840;37.442;2023-01-16T05:36:41;13.93;;;7.78;;
56073;SDS011;41950;55.840;37.442;2023-01-16T05:39:08;12.05;;;6.03;;
56073;SDS011;41950;55.840;37.442;2023-01-16T05:41:35;14.40;;;5.88;;
56073;SDS011;41950;55.840;37.442;2023-01-16T05:44:01;12.02;;;6.05;;
56073;SDS011;41950;55.840;37.442;2023-01-16T05:46:26;16.40;;;5.35;;
56073;SDS011;41950;55.840;37.442;2023-01-16T05:48:52;17.60;;;8.00;;
56073;SDS011;41950;55.840;37.442;2023-01-16T05:51:20;13.18;;;6.38;;
56073;SDS011;41950;55.840;37.442;2023-01-16T05:53:49;13.95;;;6.50;;
56073;SDS011;41950;55.840;37.442;2023-01-16T05:56:16;15.50;;;8.25;;
56073;SDS011;41950;55.840;37.442;2023-01-16T05:58:46;14.00;;;8.05;;
56073;SDS011;41950;55.840;37.442;2023-01-16T06:01:12;12.20;;;6.72;;
56073;SDS011;41950;55.840;37.442;2023-01-16T06:03:38;16.27;;;7.13;;
56073;SDS011;41950;55.840;37.442;2023-01-16T06:06:04;15.80;;;6.03;;
56073;SDS011;41950;55.840;37.442;2023-01-16T06:08:30;10.02;;;4.80;;
56073;SDS011;41950;55.840;37.442;2023-01-16T06:10:57;12.75;;;7.47;;
56073;SDS011;41950;55.840;37.442;2023-01-16T06:13:22;11.40;;;4.78;;
56073;SDS011;41950;55.840;37.442;2023-01-16T06:15:48;13.90;;;5.47;;
56073;SDS011;41950;55.840;37.442;2023-01-16T06:18:14;12.68;;;6.00;;
56073;SDS011;41950;55.840;37.442;2023-01-16T06:20:40;15.90;;;7.50;;
56073;SDS011;41950;55.840;37.442;2023-01-16T06:23:07;21.95;;;7.80;;
56073;SDS011;41950;55.840;37.442;2023-01-16T06:25:33;14.95;;;8.55;;
56073;SDS011;41950;55.840;37.442;2023-01-16T06:27:59;12.52;;;6.28;;
56073;SDS011;41950;55.840;37.442;2023-01-16T06:30:24;19.25;;;7.32;;
56073;SDS011;41950;55.840;37.442;2023-01-16T06:32:50;12.48;;;7.07;;
56073;SDS011;41950;55.840;37.442;2023-01-16T06:35:17;12.35;;;4.82;;
56073;SDS011;41950;55.840;37.442;2023-01-16T06:37:43;13.93;;;6.85;;
56073;SDS011;41950;55.840;37.442;2023-01-16T06:40:09;14.45;;;7.38;;
56073;SDS011;41950;55.840;37.442;2023-01-16T06:42:35;13.68;;;7.22;;
56073;SDS011;41950;55.840;37.442;2023-01-16T06:45:01;19.15;;;8.35;;
56073;SDS011;41950;55.840;37.442;2023-01-16T06:47:29;12.30;;;5.82;;
56073;SDS011;41950;55.840;37.442;2023-01-16T06:49:56;17.05;;;7.25;;
56073;SDS011;41950;55.840;37.442;2023-01-16T06:52:22;17.58;;;7.07;;
56073;SDS011;41950;55.840;37.442;2023-01-16T06:54:48;11.27;;;5.53;;
56073;SDS011;41950;55.840;37.442;2023-01-16T06:57:14;11.50;;;6.20;;
56073;SDS011;41950;55.840;37.442;2023-01-16T06:59:40;15.15;;;6.57;;
56073;SDS011;41950;55.840;37.442;2023-01-16T07:02:05;12.57;;;6.30;;
56073;SDS011;41950;55.840;37.442;2023-01-16T07:04:33;15.52;;;6.32;;
56073;SDS011;41950;55.840;37.442;2023-01-16T07:06:58;13.43;;;7.53;;
56073;SDS011;41950;55.840;37.442;2023-01-16T07:09:24;15.27;;;7.07;;
56073;SDS011;41950;55.840;37.442;2023-01-16T07:11:53;16.60;;;7.68;;
56073;SDS011;41950;55.840;37.442;2023-01-16T07:14:19;16.98;;;8.20;;
56073;SDS011;41950;55.840;37.442;2023-01-16T07:17:03;16.58;;;7.03;;
56073;SDS011;41950;55.840;37.442;2023-01-16T07:19:49;18.48;;;6.93;;
56073;SDS011;41950;55.840;37.442;2023-01-16T07:22:33;12.10;;;5.65;;
56073;SDS011;41950;55.840;37.442;2023-01-16T07:25:18;16.02;;;7.15;;
56073;SDS011;41950;55.840;37.442;2023-01-16T07:27:48;9.55;;;4.68;;
56073;SDS011;41950;55.840;37.442;2023-01-16T07:30:18;15.48;;;7.05;;
56073;SDS011;41950;55.840;37.442;2023-01-16T07:32:46;15.98;;;8.05;;
56073;SDS011;41950;55.840;37.442;2023-01-16T07:35:14;17.70;;;7.63;;
56073;SDS011;41950;55.840;37.442;2023-01-16T07:37:39;7.40;;;3.63;;
56073;SDS011;41950;55.840;37.442;2023-01-16T07:40:07;13.00;;;5.40;;
56073;SDS011;41950;55.840;37.442;2023-01-16T07:42:34;15.52;;;7.75;;
56073;SDS011;41950;55.840;37.442;2023-01-16T07:44:59;8.60;;;4.53;;
56073;SDS011;41950;55.840;37.442;2023-01-16T07:47:27;15.18;;;6.72;;
56073;SDS011;41950;55.840;37.442;2023-01-16T07:49:55;12.38;;;6.45;;
56073;SDS011;41950;55.840;37.442;2023-01-16T07:52:23;13.30;;;6.40;;
56073;SDS011;41950;55.840;37.442;2023-01-16T07:54:50;14.35;;;7.22;;
56073;SDS011;41950;55.840;37.442;2023-01-16T07:57:16;13.52;;;7.25;;
56073;SDS011;41950;55.840;37.442;2023-01-16T07:59:42;12.13;;;6.88;;
56073;SDS011;41950;55.840;37.442;2023-01-16T08:02:09;12.80;;;6.22;;
56073;SDS011;41950;55.840;37.442;2023-01-16T08:04:36;15.18;;;6.85;;
56073;SDS011;41950;55.840;37.442;2023-01-16T08:07:02;17.17;;;7.95;;
56073;SDS011;41950;55.840;37.442;2023-01-16T08:09:29;14.68;;;6.75;;
56073;SDS011;41950;55.840;37.442;2023-01-16T08:11:55;16.70;;;7.93;;
56073;SDS011;41950;55.840;37.442;2023-01-16T08:14:21;15.93;;;7.15;;
56073;SDS011;41950;55.840;37.442;2023-01-16T08:16:47;17.25;;;7.75;;
56073;SDS011;41950;55.840;37.442;2023-01-16T08:19:13;17.92;;;7.32;;
56073;SDS011;41950;55.840;37.442;2023-01-16T08:21:38;19.40;;;7.43;;
56073;SDS011;41950;55.840;37.442;2023-01-16T08:24:04;12.70;;;5.60;;
56073;SDS011;41950;55.840;37.442;2023-01-16T08:26:30;15.25;;;7.85;;
56073;SDS011;41950;55.840;37.442;2023-01-16T08:28:56;14.88;;;7.70;;
56073;SDS011;41950;55.840;37.442;2023-01-16T08:31:23;8.73;;;4.38;;
56073;SDS011;41950;55.840;37.442;2023-01-16T08:33:48;13.18;;;6.20;;
56073;SDS011;41950;55.840;37.442;2023-01-16T08:36:14;20.23;;;7.88;;
56073;SDS011;41950;55.840;37.442;2023-01-16T08:38:46;13.90;;;6.82;;
56073;SDS011;41950;55.840;37.442;2023-01-16T08:41:13;16.13;;;7.05;;
56073;SDS011;41950;55.840;37.442;2023-01-16T08:43:57;9.48;;;5.60;;
56073;SDS011;41950;55.840;37.442;2023-01-16T08:46:43;11.45;;;4.82;;
56073;SDS011;41950;55.840;37.442;2023-01-16T08:49:41;22.58;;;5.80;;
56073;SDS011;41950;55.840;37.442;2023-01-16T08:52:26;18.50;;;8.10;;
56073;SDS011;41950;55.840;37.442;2023-01-16T08:54:55;20.33;;;9.23;;
56073;SDS011;41950;55.840;37.442;2023-01-16T08:57:25;12.88;;;7.10;;
56073;SDS011;41950;55.840;37.442;2023-01-16T08:59:53;14.73;;;6.80;;
56073;SDS011;41950;55.840;37.442;2023-01-16T09:02:23;12.70;;;7.13;;
56073;SDS011;41950;55.840;37.442;2023-01-16T09:04:50;11.63;;;5.40;;
56073;SDS011;41950;55.840;37.442;2023-01-16T09:07:19;11.70;;;5.28;;
56073;SDS011;41950;55.840;37.442;2023-01-16T09:09:45;10.65;;;5.38;;
56073;SDS011;41950;55.840;37.442;2023-01-16T09:12:11;10.52;;;6.32;;
56073;SDS011;41950;55.840;37.442;2023-01-16T09:14:56;16.88;;;7.47;;
56073;SDS011;41950;55.840;37.442;2023-01-16T09:17:24;11.70;;;5.82;;
56073;SDS011;41950;55.840;37.442;2023-01-16T09:19:53;10.55;;;4.10;;
56073;SDS011;41950;55.840;37.442;2023-01-16T09:22:19;14.25;;;6.43;;
56073;SDS011;41950;55.840;37.442;2023-01-16T09:24:45;14.10;;;5.95;;
56073;SDS011;41950;55.840;37.442;2023-01-16T09:27:11;10.07;;;4.97;;
56073;SDS011;41950;55.840;37.442;2023-01-16T09:29:39;14.50;;;5.50;;
56073;SDS011;41950;55.840;37.442;2023-01-16T09:32:06;10.63;;;5.03;;
56073;SDS011;41950;55.840;37.442;2023-01-16T09:34:37;11.65;;;5.97;;
56073;SDS011;41950;55.840;37.442;2023-01-16T09:37:07;8.27;;;3.78;;
56073;SDS011;41950;55.840;37.442;2023-01-16T09:39:33;13.45;;;6.72;;
56073;SDS011;41950;55.840;37.442;2023-01-16T09:45:12;12.25;;;3.95;;
56073;SDS011;41950;55.840;37.442;2023-01-16T09:47:43;12.25;;;6.70;;
56073;SDS011;41950;55.840;37.442;2023-01-16T09:50:27;8.30;;;3.80;;
56073;SDS011;41950;55.840;37.442;2023-01-16T09:52:58;13.80;;;6.13;;
56073;SDS011;41950;55.840;37.442;2023-01-16T09:55:45;9.93;;;5.10;;
56073;SDS011;41950;55.840;37.442;2023-01-16T09:58:31;10.18;;;5.45;;
56073;SDS011;41950;55.840;37.442;2023-01-16T10:01:04;11.50;;;6.60;;
56073;SDS011;41950;55.840;37.442;2023-01-16T10:03:33;10.45;;;4.50;;
56073;SDS011;41950;55.840;37.442;2023-01-16T10:09:15;10.25;;;5.07;;
56073;SDS011;41950;55.840;37.442;2023-01-16T10:11:50;8.35;;;4.50;;
56073;SDS011;41950;55.840;37.442;2023-01-16T10:14:35;11.18;;;5.68;;
56073;SDS011;41950;55.840;37.442;2023-01-16T10:30:53;13.13;;;6.70;;
56073;SDS011;41950;55.840;37.442;2023-01-16T10:35:59;14.38;;;7.22;;
56073;SDS011;41950;55.840;37.442;2023-01-16T10:38:42;12.40;;;7.13;;
56073;SDS011;41950;55.840;37.442;2023-01-16T10:50:11;11.95;;;6.47;;
56073;SDS011;41950;55.840;37.442;2023-01-16T10:52:37;11.77;;;6.10;;
56073;SDS011;41950;55.840;37.442;2023-01-16T10:55:04;10.98;;;6.30;;
56073;SDS011;41950;55.840;37.442;2023-01-16T10:57:30;7.00;;;4.65;;
56073;SDS011;41950;55.840;37.442;2023-01-16T10:59:57;11.98;;;6.25;;
56073;SDS011;41950;55.840;37.442;2023-01-16T11:07:52;13.02;;;7.03;;
56073;SDS011;41950;55.840;37.442;2023-01-16T11:10:18;13.13;;;6.65;;
56073;SDS011;41950;55.840;37.442;2023-01-16T11:12:45;7.47;;;4.10;;
56073;SDS011;41950;55.840;37.442;2023-01-16T11:15:29;14.18;;;6.63;;
56073;SDS011;41950;55.840;37.442;2023-01-16T11:18:26;8.85;;;5.53;;
56073;SDS011;41950;55.840;37.442;2023-01-16T11:20:58;12.60;;;6.40;;
56073;SDS011;41950;55.840;37.442;2023-01-16T11:23:47;11.77;;;6.97;;
56073;SDS011;41950;55.840;37.442;2023-01-16T11:26:14;11.15;;;6.32;;
56073;SDS011;41950;55.840;37.442;2023-01-16T11:28:42;11.32;;;5.97;;
56073;SDS011;41950;55.840;37.442;2023-01-16T11:31:14;11.30;;;6.43;;
56073;SDS011;41950;55.840;37.442;2023-01-16T11:33:42;9.98;;;5.45;;
56073;SDS011;41950;55.840;37.442;2023-01-16T11:36:10;9.73;;;5.07;;
56073;SDS011;41950;55.840;37.442;2023-01-16T11:38:42;11.65;;;5.88;;
56073;SDS011;41950;55.840;37.442;2023-01-16T11:41:10;9.88;;;5.68;;
56073;SDS011;41950;55.840;37.442;2023-01-16T11:43:36;9.93;;;6.03;;
56073;SDS011;41950;55.840;37.442;2023-01-16T11:48:53;7.50;;;4.47;;
56073;SDS011;41950;55.840;37.442;2023-01-16T11:51:27;7.85;;;4.78;;
56073;SDS011;41950;55.840;37.442;2023-01-16T11:53:54;10.23;;;5.75;;
56073;SDS011;41950;55.840;37.442;2023-01-16T11:58:57;10.95;;;5.85;;
56073;SDS011;41950;55.840;37.442;2023-01-16T12:01:41;9.23;;;4.95;;
56073;SDS011;41950;55.840;37.442;2023-01-16T12:04:37;9.73;;;5.55;;
56073;SDS011;41950;55.840;37.442;2023-01-16T12:07:30;9.60;;;5.82;;
56073;SDS011;41950;55.840;37.442;2023-01-16T12:10:25;9.38;;;4.72;;
56073;SDS011;41950;55.840;37.442;2023-01-16T12:13:04;9.73;;;5.30;;
56073;SDS011;41950;55.840;37.442;2023-01-16T12:16:06;9.88;;;4.95;;
56073;SDS011;41950;55.840;37.442;2023-01-16T12:18:36;11.73;;;6.75;;
56073;SDS011;41950;55.840;37.442;2023-01-16T12:21:34;9.25;;;5.78;;
56073;SDS011;41950;55.840;37.442;2023-01-16T12:29:42;10.02;;;5.65;;
56073;SDS011;41950;55.840;37.442;2023-01-16T12:38:14;5.97;;;3.05;;
56073;SDS011;41950;55.840;37.442;2023-01-16T12:44:05;8.75;;;6.13;;
56073;SDS011;41950;55.840;37.442;2023-01-16T12:52:03;10.10;;;5.85;;
56073;SDS011;41950;55.840;37.442;2023-01-16T12:59:47;10.13;;;6.57;;
56073;SDS011;41950;55.840;37.442;2023-01-16T13:07:38;10.40;;;6.40;;
56073;SDS011;41950;55.840;37.442;2023-01-16T13:10:13;11.55;;;5.80;;
56073;SDS011;41950;55.840;37.442;2023-01-16T13:13:00;10.13;;;5.78;;
56073;SDS011;41950;55.840;37.442;2023-01-16T13:15:49;11.05;;;6.35;;
56073;SDS011;41950;55.840;37.442;2023-01-16T13:18:26;13.45;;;6.45;;
56073;SDS011;41950;55.840;37.442;2023-01-16T13:20:58;12.43;;;6.75;;
56073;SDS011;41950;55.840;37.442;2023-01-16T13:23:33;13.40;;;5.93;;
56073;SDS011;41950;55.840;37.442;2023-01-16T13:26:05;10.25;;;7.03;;
56073;SDS011;41950;55.840;37.442;2023-01-16T13:31:20;12.43;;;7.10;;
56073;SDS011;41950;55.840;37.442;2023-01-16T13:33:58;9.38;;;5.63;;
56073;SDS011;41950;55.840;37.442;2023-01-16T13:42:19;11.52;;;6.07;;
56073;SDS011;41950;55.840;37.442;2023-01-16T13:44:50;12.52;;;7.45;;
56073;SDS011;41950;55.840;37.442;2023-01-16T13:47:39;10.68;;;6.70;;
56073;SDS011;41950;55.840;37.442;2023-01-16T13:52:56;11.48;;;6.70;;
56073;SDS011;41950;55.840;37.442;2023-01-16T13:55:36;11.07;;;7.40;;
56073;SDS011;41950;55.840;37.442;2023-01-16T13:58:23;11.75;;;7.28;;
56073;SDS011;41950;55.840;37.442;2023-01-16T14:01:01;8.63;;;4.78;;
56073;SDS011;41950;55.840;37.442;2023-01-16T14:03:33;11.70;;;7.03;;
56073;SDS011;41950;55.840;37.442;2023-01-16T14:17:03;15.70;;;7.82;;
56073;SDS011;41950;55.840;37.442;2023-01-16T14:19:35;11.05;;;6.60;;
56073;SDS011;41950;55.840;37.442;2023-01-16T14:22:02;12.35;;;6.75;;
56073;SDS011;41950;55.840;37.442;2023-01-16T14:24:45;12.27;;;8.02;;
56073;SDS011;41950;55.840;37.442;2023-01-16T14:27:23;11.07;;;6.93;;
56073;SDS011;41950;55.840;37.442;2023-01-16T14:29:56;11.55;;;6.50;;
56073;SDS011;41950;55.840;37.442;2023-01-16T14:32:25;13.02;;;7.85;;
56073;SDS011;41950;55.840;37.442;2023-01-16T14:34:57;11.85;;;6.50;;
56073;SDS011;41950;55.840;37.442;2023-01-16T14:42:46;11.57;;;8.02;;
56073;SDS011;41950;55.840;37.442;2023-01-16T14:45:39;15.40;;;7.45;;
56073;SDS011;41950;55.840;37.442;2023-01-16T14:53:57;13.80;;;7.97;;
56073;SDS011;41950;55.840;37.442;2023-01-16T14:56:46;12.18;;;8.00;;
56073;SDS011;41950;55.840;37.442;2023-01-16T15:02:05;14.00;;;8.55;;
56073;SDS011;41950;55.840;37.442;2023-01-16T15:07:31;12.73;;;7.78;;
56073;SDS011;41950;55.840;37.442;2023-01-16T15:13:15;12.45;;;8.13;;
56073;SDS011;41950;55.840;37.442;2023-01-16T15:16:04;15.10;;;7.97;;
56073;SDS011;41950;55.840;37.442;2023-01-16T15:18:40;11.95;;;7.43;;
56073;SDS011;41950;55.840;37.442;2023-01-16T15:21:26;18.17;;;8.13;;
56073;SDS011;41950;55.840;37.442;2023-01-16T15:24:11;15.48;;;9.93;;
56073;SDS011;41950;55.840;37.442;2023-01-16T15:26:54;13.88;;;7.90;;
56073;SDS011;41950;55.840;37.442;2023-01-16T15:32:25;16.80;;;9.02;;
56073;SDS011;41950;55.840;37.442;2023-01-16T15:35:04;12.32;;;7.40;;
56073;SDS011;41950;55.840;37.442;2023-01-16T15:37:47;13.50;;;8.60;;
56073;SDS011;41950;55.840;37.442;2023-01-16T15:42:48;16.77;;;10.43;;
56073;SDS011;41950;55.840;37.442;2023-01-16T15:45:32;15.98;;;9.60;;
56073;SDS011;41950;55.840;37.442;2023-01-16T15:48:31;15.27;;;9.63;;
56073;SDS011;41950;55.840;37.442;2023-01-16T15:51:19;14.23;;;7.85;;
56073;SDS011;41950;55.840;37.442;2023-01-16T15:53:46;15.45;;;9.93;;
56073;SDS011;41950;55.840;37.442;2023-01-16T15:56:22;12.98;;;7.53;;
56073;SDS011;41950;55.840;37.442;2023-01-16T15:59:03;13.20;;;8.40;;
56073;SDS011;41950;55.840;37.442;2023-01-16T16:01:44;16.30;;;9.93;;
56073;SDS011;41950;55.840;37.442;2023-01-16T16:04:10;18.42;;;10.20;;
56073;SDS011;41950;55.840;37.442;2023-01-16T16:06:36;14.52;;;9.70;;
56073;SDS011;41950;55.840;37.442;2023-01-16T16:09:05;15.07;;;8.90;;
56073;SDS011;41950;55.840;37.442;2023-01-16T16:11:38;15.75;;;9.95;;
56073;SDS011;41950;55.840;37.442;2023-01-16T16:17:30;18.95;;;11.25;;
56073;SDS011;41950;55.840;37.442;2023-01-16T16:20:23;15.52;;;8.93;;
56073;SDS011;41950;55.840;37.442;2023-01-16T16:22:48;17.02;;;10.00;;
56073;SDS011;41950;55.840;37.442;2023-01-16T16:25:23;14.98;;;8.43;;
56073;SDS011;41950;55.840;37.442;2023-01-16T16:28:04;18.95;;;11.60;;
56073;SDS011;41950;55.840;37.442;2023-01-16T16:30:42;17.60;;;10.05;;
56073;SDS011;41950;55.840;37.442;2023-01-16T16:33:17;13.25;;;7.38;;
56073;SDS011;41950;55.840;37.442;2023-01-16T16:35:50;17.60;;;9.90;;
56073;SDS011;41950;55.840;37.442;2023-01-16T16:38:25;16.50;;;9.40;;
56073;SDS011;41950;55.840;37.442;2023-01-16T16:43:43;17.88;;;10.02;;
56073;SDS011;41950;55.840;37.442;2023-01-16T16:49:37;19.05;;;9.27;;
56073;SDS011;41950;55.840;37.442;2023-01-16T16:51:41;18.92;;;10.27;;
56073;SDS011;41950;55.840;37.442;2023-01-16T16:54:15;13.60;;;8.60;;
56073;SDS011;41950;55.840;37.442;2023-01-16T16:56:50;17.63;;;10.38;;
56073;SDS011;41950;55.840;37.442;2023-01-16T16:59:23;19.70;;;12.05;;
56073;SDS011;41950;55.840;37.442;2023-01-16T17:01:52;16.42;;;10.48;;
56073;SDS011;41950;55.840;37.442;2023-01-16T17:04:21;16.13;;;8.93;;
56073;SDS011;41950;55.840;37.442;2023-01-16T17:06:47;20.92;;;11.63;;
56073;SDS011;41950;55.840;37.442;2023-01-16T17:09:16;17.50;;;10.20;;
56073;SDS011;41950;55.840;37.442;2023-01-16T17:11:46;18.70;;;9.85;;
56073;SDS011;41950;55.840;37.442;2023-01-16T17:14:11;15.77;;;9.77;;
56073;SDS011;41950;55.840;37.442;2023-01-16T17:16:37;16.55;;;9.63;;
56073;SDS011;41950;55.840;37.442;2023-01-16T17:19:29;17.63;;;9.45;;
56073;SDS011;41950;55.840;37.442;2023-01-16T17:21:56;19.35;;;10.07;;
56073;SDS011;41950;55.840;37.442;2023-01-16T17:24:22;19.15;;;11.68;;
56073;SDS011;41950;55.840;37.442;2023-01-16T17:26:48;18.27;;;11.20;;
56073;SDS011;41950;55.840;37.442;2023-01-16T17:29:13;18.27;;;10.98;;
56073;SDS011;41950;55.840;37.442;2023-01-16T17:31:43;13.65;;;9.88;;
56073;SDS011;41950;55.840;37.442;2023-01-16T17:34:12;18.50;;;11.35;;
56073;SDS011;41950;55.840;37.442;2023-01-16T17:36:39;20.52;;;12.10;;
56073;SDS011;41950;55.840;37.442;2023-01-16T17:39:05;15.60;;;8.75;;
56073;SDS011;41950;55.840;37.442;2023-01-16T17:41:32;20.50;;;11.10;;
56073;SDS011;41950;55.840;37.442;2023-01-16T17:44:23;15.98;;;8.98;;
56073;SDS011;41950;55.840;37.442;2023-01-16T17:47:09;20.42;;;11.23;;